Terminal Aerodrome Forecast
Issued by NWS Miami, FL

Home | Current Version | Previous Version | Text Only | Print | Product List | Glossary On
Versions: 1 2 3 4 5 6 7 8 9 10 11 12 13 14 15 16 17 18 19 20 21 22 23 24 25 26
000
FTUS42 KMFL 251720
TAFAPF
TAF
KAPF 251720Z 2518/2618 34010KT P6SM FEW035
     FM260200 02004KT P6SM SKC
     FM260600 VRB03KT P6SM FEW250
     FM261200 03006KT P6SM SKC=

USA.gov is the U.S. government's official web portal to all federal, state and local government web resources and services.